Terminal Aerodrome Forecast
Issued by NWS La Crosse, WI

Home | Current Version | Previous Version | Text Only | Print | Product List | Glossary On
Versions: 1 2 3 4 5 6 7 8 9 10 11 12 13 14 15
000
FTUS43 KARX 040525
TAFLSE
TAF
KLSE 040525Z 0406/0506 36008KT P6SM SCT100
     FM041300 34011KT P6SM SKC
     FM041500 34013G22KT P6SM SCT040
      TEMPO 0417/0420 BKN040
     FM050000 36006KT P6SM SKC=

USA.gov is the U.S. government's official web portal to all federal, state and local government web resources and services.